createdAt,value
2023-10-05T00:00:48.238Z,95.6
2023-10-05T00:02:28.875Z,95.8
2023-10-05T00:04:09.581Z,95.4
2023-10-05T00:05:50.349Z,95.4
2023-10-05T00:07:30.961Z,95.3
2023-10-05T00:09:11.516Z,94.9
2023-10-05T00:10:52.360Z,95.1
2023-10-05T00:12:32.853Z,95
2023-10-05T00:14:13.516Z,95.1
2023-10-05T00:15:54.064Z,94.8
2023-10-05T00:17:34.703Z,95
2023-10-05T00:19:15.562Z,94.9
2023-10-05T00:20:56.059Z,94.8
2023-10-05T00:22:36.643Z,95.4
2023-10-05T00:24:17.065Z,95.1
2023-10-05T00:25:57.550Z,95.5
2023-10-05T00:27:38.235Z,95.2
2023-10-05T00:29:18.772Z,94.8
2023-10-05T00:30:59.383Z,95.3
2023-10-05T00:32:39.970Z,95.4
2023-10-05T00:34:20.559Z,95.2
2023-10-05T00:36:01.077Z,95.4
2023-10-05T00:37:41.557Z,95.2
2023-10-05T00:39:22.022Z,95.1
2023-10-05T00:41:02.439Z,95.4
2023-10-05T00:42:59.878Z,95.3
2023-10-05T00:44:40.376Z,95.6
2023-10-05T00:46:20.976Z,95.5
2023-10-05T00:48:01.798Z,95.2
2023-10-05T00:49:42.619Z,95.4
2023-10-05T00:51:23.105Z,95
2023-10-05T00:53:03.623Z,94.9
2023-10-05T00:54:44.125Z,95.5
2023-10-05T00:56:24.629Z,95.4
2023-10-05T00:58:05.208Z,94.7
2023-10-05T00:59:45.685Z,94.9
2023-10-05T01:01:26.305Z,95.5
2023-10-05T01:03:07.345Z,95.2
2023-10-05T01:04:48.400Z,95.2
2023-10-05T01:06:29.014Z,95.2
2023-10-05T01:08:10.780Z,95.1
2023-10-05T01:09:51.274Z,95.2
2023-10-05T01:11:31.864Z,94.8
2023-10-05T01:13:12.423Z,94.9
2023-10-05T01:14:52.991Z,95.3
2023-10-05T01:16:34.129Z,95
2023-10-05T01:18:14.979Z,95.3
2023-10-05T01:19:55.477Z,95.5
2023-10-05T01:21:35.936Z,95.3
2023-10-05T01:23:16.423Z,95.7
2023-10-05T01:24:56.887Z,95.1
2023-10-05T01:26:37.419Z,95
2023-10-05T01:28:18.170Z,95.2
2023-10-05T01:29:58.721Z,94.9
2023-10-05T01:31:39.387Z,95.1
2023-10-05T01:33:20.040Z,95.5
2023-10-05T01:35:05.923Z,95.5
2023-10-05T01:36:51.673Z,94.8
2023-10-05T01:38:32.326Z,95.5
2023-10-05T01:40:12.812Z,94.6
2023-10-05T01:41:53.382Z,95.6
2023-10-05T01:43:33.867Z,95.1
2023-10-05T01:45:14.312Z,95.5
2023-10-05T01:46:54.772Z,94.5
2023-10-05T01:48:35.300Z,94.8
2023-10-05T01:50:15.763Z,94.7
2023-10-05T01:51:56.400Z,95.1
2023-10-05T01:53:37.223Z,94.8
2023-10-05T01:55:18.029Z,95
2023-10-05T01:56:58.681Z,94.9
2023-10-05T01:58:42.002Z,94.9
2023-10-05T02:00:22.635Z,95.1
2023-10-05T02:03:15.038Z,94.6
2023-10-05T02:04:55.670Z,95.2
2023-10-05T02:06:36.122Z,94.8
2023-10-05T02:08:16.581Z,95
2023-10-05T02:09:57.076Z,95.5
2023-10-05T02:11:37.602Z,95.1
2023-10-05T02:13:18.149Z,94.4
2023-10-05T02:14:58.700Z,95.3
2023-10-05T02:16:39.289Z,95.4
2023-10-05T02:18:19.915Z,94.7
2023-10-05T02:20:00.362Z,95
2023-10-05T02:21:40.831Z,94.9
2023-10-05T02:23:21.272Z,94.4
2023-10-05T02:25:01.863Z,95
2023-10-05T02:26:42.592Z,94.9
2023-10-05T02:28:23.134Z,94.6
2023-10-05T02:30:03.825Z,95.3
2023-10-05T02:31:44.551Z,94.7
2023-10-05T02:33:25.230Z,95.2
2023-10-05T02:35:05.708Z,94.7
2023-10-05T02:36:46.208Z,94.7
2023-10-05T02:38:26.697Z,94.6
2023-10-05T02:40:07.242Z,94.4
2023-10-05T02:41:47.712Z,94.5
2023-10-05T02:43:28.264Z,95.3
2023-10-05T02:45:10.497Z,95
2023-10-05T02:46:50.933Z,94.9
2023-10-05T02:48:31.482Z,94.7
2023-10-05T02:50:11.947Z,94.9
2023-10-05T02:51:52.420Z,95
2023-10-05T02:53:32.863Z,94.9
2023-10-05T02:55:13.388Z,94.4
2023-10-05T02:56:53.968Z,94.8
2023-10-05T02:58:34.538Z,94.4
2023-10-05T03:00:15.051Z,94.8
2023-10-05T03:01:55.792Z,94.6
2023-10-05T03:03:36.429Z,94.7
2023-10-05T03:05:16.936Z,94.8
2023-10-05T03:06:57.529Z,94.5
2023-10-05T03:08:37.975Z,94.8
2023-10-05T03:10:18.922Z,94.5
2023-10-05T03:11:59.392Z,94.7
2023-10-05T03:13:39.859Z,95
2023-10-05T03:15:20.378Z,95.1
2023-10-05T03:17:00.956Z,94.7
2023-10-05T03:18:41.436Z,94.6
2023-10-05T03:20:21.881Z,94.7
2023-10-05T03:22:03.218Z,94.7
2023-10-05T03:23:46.170Z,94.6
2023-10-05T03:25:26.746Z,95.3
2023-10-05T03:27:07.207Z,95.1
2023-10-05T03:28:47.641Z,95
2023-10-05T03:30:28.104Z,95.4
2023-10-05T03:32:08.615Z,94.8
2023-10-05T03:33:49.252Z,94.8
2023-10-05T03:35:29.687Z,95
2023-10-05T03:37:10.214Z,94.7
2023-10-05T03:38:50.782Z,94.8
2023-10-05T03:40:31.383Z,95.1
2023-10-05T03:42:12.005Z,95.1
2023-10-05T03:43:52.461Z,94.8
2023-10-05T03:45:32.950Z,94.5
2023-10-05T03:47:13.556Z,95
2023-10-05T03:48:54.830Z,94.3
2023-10-05T03:50:35.326Z,94.8
2023-10-05T03:54:13.171Z,94.4
2023-10-05T03:55:53.645Z,94.6
2023-10-05T03:57:34.168Z,95.2
2023-10-05T03:59:14.657Z,95.1
2023-10-05T04:00:55.271Z,95.5
2023-10-05T04:02:35.967Z,95.3
2023-10-05T04:04:16.699Z,95.1
2023-10-05T04:05:57.263Z,94.7
2023-10-05T04:07:37.723Z,95
2023-10-05T04:09:18.237Z,94.8
2023-10-05T04:10:58.768Z,94.9
2023-10-05T04:12:39.192Z,94.6
2023-10-05T04:14:19.708Z,94.4
2023-10-05T04:16:00.293Z,94.6
2023-10-05T04:17:40.856Z,94.7
2023-10-05T04:19:21.457Z,94.7
2023-10-05T04:21:02.200Z,94.3
2023-10-05T04:22:42.652Z,95
2023-10-05T04:24:23.101Z,94.6
2023-10-05T04:26:03.702Z,94.7
2023-10-05T04:27:44.134Z,95.1
2023-10-05T04:29:24.623Z,94.6
2023-10-05T04:31:05.337Z,94.8
2023-10-05T04:32:45.977Z,94.9
2023-10-05T04:34:26.629Z,94.6
2023-10-05T04:36:07.116Z,94.6
2023-10-05T04:37:47.662Z,94.6
2023-10-05T04:39:28.142Z,94.8
2023-10-05T04:41:08.927Z,95
2023-10-05T04:42:49.442Z,94.9
2023-10-05T04:44:29.904Z,95.3
2023-10-05T04:46:10.427Z,95
2023-10-05T04:47:51.017Z,94.7
2023-10-05T04:49:31.563Z,95.2
2023-10-05T04:51:12.142Z,94.6
2023-10-05T04:52:52.634Z,94.7
2023-10-05T04:54:33.164Z,95.2
2023-10-05T04:56:13.640Z,94.7
2023-10-05T04:57:54.158Z,94.7
2023-10-05T04:59:34.726Z,95.1
2023-10-05T05:01:15.312Z,95.4
2023-10-05T05:02:56.373Z,95
2023-10-05T05:04:37.219Z,95
2023-10-05T05:06:17.665Z,94.8
2023-10-05T05:07:58.221Z,94.8
2023-10-05T05:09:38.693Z,95
2023-10-05T05:11:19.164Z,95.2
2023-10-05T05:13:00.125Z,94.9
2023-10-05T05:14:40.819Z,95
2023-10-05T05:16:21.502Z,95
2023-10-05T05:18:02.736Z,94.7
2023-10-05T05:19:47.394Z,95.1
2023-10-05T05:21:27.908Z,94.8
2023-10-05T05:23:08.369Z,94.8
2023-10-05T05:24:48.878Z,95.1
2023-10-05T05:26:29.518Z,95.2
2023-10-05T05:28:10.097Z,95.4
2023-10-05T05:29:50.804Z,95.6
2023-10-05T05:31:31.367Z,95.5
2023-10-05T05:33:12.242Z,95.3
2023-10-05T05:34:52.893Z,95.1
2023-10-05T05:36:33.388Z,94.9
2023-10-05T05:38:13.901Z,95.7
2023-10-05T05:39:54.359Z,95.6
2023-10-05T05:43:32.405Z,95.8
2023-10-05T05:45:12.938Z,95.2
2023-10-05T05:46:53.500Z,95.6
2023-10-05T05:48:34.040Z,95.6
2023-10-05T05:50:14.604Z,95.6
2023-10-05T05:51:55.067Z,95.4
2023-10-05T05:53:35.519Z,95.8
2023-10-05T05:55:16.088Z,95.6
2023-10-05T05:56:56.664Z,95.1
2023-10-05T05:58:37.276Z,95.3
2023-10-05T06:00:17.865Z,95
2023-10-05T06:01:58.531Z,94.8
2023-10-05T06:03:39.203Z,95.1
2023-10-05T06:05:19.683Z,95
2023-10-05T06:07:00.221Z,95.1
2023-10-05T06:08:40.763Z,94.8
2023-10-05T06:10:21.214Z,94.8
2023-10-05T06:12:01.870Z,94.7
2023-10-05T06:13:42.499Z,94.4
2023-10-05T06:15:23.032Z,94.8
2023-10-05T06:17:03.629Z,94.3
2023-10-05T06:18:44.231Z,94.4
2023-10-05T06:20:24.755Z,94.4
2023-10-05T06:22:05.292Z,94.7
2023-10-05T06:23:45.937Z,94.3
2023-10-05T06:25:27.852Z,94.2
2023-10-05T06:27:08.735Z,94.4
2023-10-05T06:28:49.391Z,94.2
2023-10-05T06:30:30.012Z,94.2
2023-10-05T06:32:10.645Z,94.2
2023-10-05T06:33:51.166Z,94.6
2023-10-05T06:35:31.622Z,94.7
2023-10-05T06:37:12.148Z,94.4
2023-10-05T06:38:52.738Z,94.5
2023-10-05T06:40:33.203Z,95.1
2023-10-05T06:42:14.124Z,94.5
2023-10-05T06:43:54.610Z,94.4
2023-10-05T06:45:35.123Z,94.3
2023-10-05T06:47:18.615Z,94.3
2023-10-05T06:48:59.458Z,94.8
2023-10-05T06:50:39.961Z,94.5
2023-10-05T06:52:20.610Z,94.6
2023-10-05T06:54:01.232Z,94.3
2023-10-05T06:55:41.785Z,95.1
2023-10-05T06:57:22.499Z,94.4
2023-10-05T06:59:02.912Z,94.6
2023-10-05T07:00:43.654Z,94.9
2023-10-05T07:02:24.369Z,94.6
2023-10-05T07:04:05.102Z,94.8
2023-10-05T07:05:45.826Z,94.5
2023-10-05T07:07:26.710Z,94.8
2023-10-05T07:09:07.697Z,94.4
2023-10-05T07:10:48.456Z,94.3
2023-10-05T07:12:29.036Z,94.2
2023-10-05T07:14:09.805Z,94.6
2023-10-05T07:15:50.297Z,94.4
2023-10-05T07:17:30.911Z,94.7
2023-10-05T07:19:12.623Z,94.8
2023-10-05T07:20:53.814Z,94.8
2023-10-05T07:22:34.620Z,94.9
2023-10-05T07:24:15.104Z,94.6
2023-10-05T07:25:55.552Z,94.7
2023-10-05T07:27:35.996Z,95
2023-10-05T07:29:32.042Z,94.7
2023-10-05T07:31:13.096Z,94
2023-10-05T07:31:30.387Z,94
2023-10-05T07:58:34.989Z,94.5
2023-10-05T08:00:15.544Z,94.3
2023-10-05T08:03:18.284Z,95
2023-10-05T08:04:58.937Z,94.5
2023-10-05T08:06:39.890Z,94.4
2023-10-05T08:08:22.884Z,94.4
2023-10-05T08:10:03.374Z,94.7
2023-10-05T08:11:44.026Z,94.8
2023-10-05T08:13:25.807Z,95.3
2023-10-05T08:15:06.692Z,94.8
2023-10-05T08:16:47.238Z,94.5
2023-10-05T08:18:27.998Z,94.2
2023-10-05T08:20:08.466Z,94.8
2023-10-05T08:21:49.040Z,94.3
2023-10-05T08:23:29.465Z,94.6
2023-10-05T08:25:10.102Z,94.6
2023-10-05T08:26:50.585Z,94.2
2023-10-05T08:28:31.157Z,94.6
2023-10-05T08:30:11.711Z,94.4
2023-10-05T08:31:52.351Z,95
2023-10-05T08:33:33.051Z,94.6
2023-10-05T08:35:13.485Z,94.8
2023-10-05T08:36:54.027Z,94.6
2023-10-05T08:38:34.515Z,94.3
2023-10-05T08:40:14.965Z,94.8
2023-10-05T08:41:55.511Z,94.8
2023-10-05T08:43:36.055Z,94.1
2023-10-05T08:45:16.618Z,94.2
2023-10-05T08:46:57.193Z,94.6
2023-10-05T08:48:38.531Z,95
2023-10-05T08:50:19.017Z,94.7
2023-10-05T08:52:05.900Z,95.1
2023-10-05T08:53:46.372Z,95
2023-10-05T08:55:27.954Z,94.9
2023-10-05T08:57:08.438Z,94.7
2023-10-05T08:58:49.267Z,94.7
2023-10-05T09:00:29.728Z,94.6
2023-10-05T09:02:10.623Z,94.5
2023-10-05T09:03:51.335Z,94.3
2023-10-05T09:05:31.920Z,94.4
2023-10-05T09:07:12.441Z,94.2
2023-10-05T09:08:53.299Z,94.7
2023-10-05T09:10:34.033Z,95.3
2023-10-05T09:12:14.871Z,94.6
2023-10-05T09:13:55.484Z,94.5
2023-10-05T09:15:36.209Z,94.6
2023-10-05T09:17:16.644Z,94.8
2023-10-05T09:18:57.102Z,94.1
2023-10-05T09:20:37.600Z,94.4
2023-10-05T09:22:18.032Z,94.6
2023-10-05T09:23:58.564Z,95.1
2023-10-05T09:25:42.274Z,94
2023-10-05T09:27:22.754Z,94.9
2023-10-05T09:29:04.322Z,94.6
2023-10-05T09:30:45.105Z,94.4
2023-10-05T09:32:25.795Z,94.3
2023-10-05T09:34:07.653Z,94.4
2023-10-05T09:35:48.521Z,94.6
2023-10-05T09:37:29.010Z,94.3
2023-10-05T09:39:09.544Z,94.7
2023-10-05T09:40:49.986Z,94.2
2023-10-05T09:42:30.506Z,94.4
2023-10-05T09:44:11.199Z,93.9
2023-10-05T09:45:51.694Z,94.1
2023-10-05T09:47:32.114Z,94.4
2023-10-05T09:49:12.697Z,93.7
2023-10-05T09:50:53.126Z,94.4
2023-10-05T09:52:33.671Z,94.3
2023-10-05T09:54:31.212Z,94.8
2023-10-05T09:56:11.808Z,94.6
2023-10-05T09:57:52.759Z,94.1
2023-10-05T09:59:33.313Z,94.2
2023-10-05T10:01:13.875Z,94
2023-10-05T10:02:54.532Z,94.6
2023-10-05T10:04:35.141Z,94
2023-10-05T10:06:15.832Z,93.9
2023-10-05T10:07:56.444Z,94
2023-10-05T10:09:36.945Z,94.4
2023-10-05T10:11:17.551Z,94.2
2023-10-05T10:12:58.075Z,94.7
2023-10-05T10:14:38.552Z,94.6
2023-10-05T10:16:19.076Z,94.7
2023-10-05T10:17:59.904Z,94.6
2023-10-05T10:19:40.572Z,94
2023-10-05T10:21:21.073Z,93.8
2023-10-05T10:23:01.513Z,94.2
2023-10-05T10:24:41.972Z,94.5
2023-10-05T10:26:22.436Z,93.8
2023-10-05T10:28:03.391Z,94.1
2023-10-05T10:29:47.368Z,93.8
2023-10-05T10:31:28.097Z,94.3
2023-10-05T10:33:08.746Z,94.4
2023-10-05T10:34:52.783Z,93.7
2023-10-05T10:36:33.244Z,94.8
2023-10-05T10:38:13.699Z,94.4
2023-10-05T10:39:54.163Z,94.2
2023-10-05T10:41:34.603Z,94.3
2023-10-05T10:43:15.089Z,94.2
2023-10-05T10:44:55.657Z,94.1
2023-10-05T10:46:36.302Z,94.3
2023-10-05T10:48:17.262Z,94.2
2023-10-05T10:49:57.835Z,94.2
2023-10-05T10:51:38.416Z,94.5
2023-10-05T10:53:19.601Z,94
2023-10-05T10:55:00.306Z,94.2
2023-10-05T10:56:40.859Z,94.3
2023-10-05T10:58:21.344Z,94.1
2023-10-05T11:00:01.893Z,93.9
2023-10-05T11:01:42.458Z,94.1
2023-10-05T11:03:23.108Z,94.2
2023-10-05T11:05:03.644Z,94.4
2023-10-05T11:06:44.211Z,95
2023-10-05T11:08:24.703Z,95
2023-10-05T11:10:05.284Z,94.6
2023-10-05T11:11:45.791Z,94.5
2023-10-05T11:13:26.252Z,94.7
2023-10-05T11:15:06.866Z,94.6
2023-10-05T11:16:47.503Z,94.8
2023-10-05T11:18:28.123Z,94.2
2023-10-05T11:20:08.586Z,94.1
2023-10-05T11:21:49.169Z,94.4
2023-10-05T11:23:29.589Z,94.1
2023-10-05T11:25:10.053Z,94.1
2023-10-05T11:26:55.895Z,94
2023-10-05T11:28:36.786Z,94.2
2023-10-05T11:30:40.857Z,94
2023-10-05T11:34:11.653Z,94.1
2023-10-05T11:37:01.615Z,94
2023-10-05T11:38:42.526Z,94
2023-10-05T11:40:23.243Z,94
2023-10-05T11:44:01.434Z,93.8
2023-10-05T11:45:42.003Z,94.9
2023-10-05T11:47:22.781Z,94.1
2023-10-05T11:49:03.585Z,94.2
2023-10-05T11:50:44.062Z,94.2
2023-10-05T11:52:24.695Z,93.8
2023-10-05T11:54:05.368Z,94.4
2023-10-05T11:55:45.805Z,94
2023-10-05T11:57:26.351Z,94.4
2023-10-05T11:59:07.235Z,94.4
2023-10-05T12:00:48.211Z,94.8
2023-10-05T12:02:29.043Z,94
2023-10-05T12:04:10.331Z,94.4
2023-10-05T12:05:51.846Z,94.4
2023-10-05T12:07:32.815Z,94.8
2023-10-05T12:09:13.390Z,93.9
2023-10-05T12:10:53.987Z,94.1
2023-10-05T12:12:34.446Z,94.1
2023-10-05T12:14:14.902Z,94
2023-10-05T12:15:55.714Z,94.5
2023-10-05T12:17:36.378Z,94.2
2023-10-05T12:19:17.482Z,94.7
2023-10-05T12:20:58.715Z,94.4
2023-10-05T12:22:41.973Z,94.1
2023-10-05T12:24:22.455Z,93.8
2023-10-05T12:26:02.905Z,94.4
2023-10-05T12:27:43.565Z,93.9
2023-10-05T12:29:24.016Z,94.1
2023-10-05T12:31:04.505Z,93.9
2023-10-05T12:32:45.199Z,93.9
2023-10-05T12:34:31.034Z,94
2023-10-05T12:36:12.191Z,94.2
2023-10-05T12:37:52.659Z,94.3
2023-10-05T12:39:33.109Z,94.1
2023-10-05T12:41:13.714Z,94.5
2023-10-05T12:44:58.024Z,93.9
2023-10-05T12:46:38.567Z,94.4
2023-10-05T12:48:19.250Z,94
2023-10-05T12:49:59.900Z,95
2023-10-05T12:51:40.555Z,94.3
2023-10-05T12:53:21.076Z,94.3
2023-10-05T12:55:01.574Z,93.9
2023-10-05T12:56:42.055Z,94.1
2023-10-05T12:58:22.650Z,94.5
2023-10-05T13:00:03.145Z,94
2023-10-05T13:01:43.819Z,94.3
2023-10-05T13:03:24.577Z,94.4
2023-10-05T13:05:29.759Z,94.6
2023-10-05T13:07:15.288Z,94.1
2023-10-05T13:08:55.847Z,94.1
2023-10-05T13:10:36.310Z,94.8
2023-10-05T13:12:16.915Z,94.1
2023-10-05T13:13:57.481Z,94.4
2023-10-05T13:15:38.089Z,94.2
2023-10-05T13:17:18.817Z,94.1
2023-10-05T13:18:59.403Z,94
2023-10-05T13:20:40.131Z,93.8
2023-10-05T13:22:21.354Z,94.4
2023-10-05T13:24:01.910Z,94.6
2023-10-05T13:25:42.451Z,94.1
2023-10-05T13:27:23.004Z,94.5
2023-10-05T13:29:04.339Z,94
2023-10-05T13:30:44.931Z,93.7
2023-10-05T13:31:09.310Z,93.8
2023-10-05T13:32:54.594Z,93.8
2023-10-05T13:34:35.156Z,94.5
2023-10-05T13:36:15.996Z,93.9
2023-10-05T13:37:56.563Z,94.2
2023-10-05T13:39:37.072Z,94.3
2023-10-05T13:41:17.577Z,94.1
2023-10-05T13:42:58.078Z,93.8
2023-10-05T13:44:38.601Z,94.1
2023-10-05T13:46:19.257Z,94.6
2023-10-05T13:48:00.513Z,94.1
2023-10-05T13:49:41.415Z,93.8
2023-10-05T13:51:22.234Z,94.3
2023-10-05T13:53:04.207Z,93.9
2023-10-05T13:54:44.702Z,94.5
2023-10-05T13:56:25.163Z,94.1
2023-10-05T13:58:05.637Z,94.4
2023-10-05T13:59:48.548Z,94.8
2023-10-05T14:03:21.669Z,94.2
2023-10-05T14:05:03.699Z,94
2023-10-05T14:06:44.595Z,94.1
2023-10-05T14:08:25.164Z,93.6
2023-10-05T14:10:05.717Z,94.2
2023-10-05T14:11:46.184Z,94.4
2023-10-05T14:13:26.664Z,94.7
2023-10-05T14:15:07.080Z,93.9
2023-10-05T14:16:47.582Z,94.2
2023-10-05T14:18:28.094Z,94.5
2023-10-05T14:20:08.739Z,93.7
2023-10-05T14:21:49.518Z,94.4
2023-10-05T14:23:30.093Z,94.2
2023-10-05T14:25:10.543Z,94
2023-10-05T14:26:51.464Z,94.3
2023-10-05T14:28:31.952Z,94.1
2023-10-05T14:30:12.548Z,94.4
2023-10-05T14:31:53.068Z,93.8
2023-10-05T14:33:34.037Z,94.3
2023-10-05T14:35:14.523Z,94.6
2023-10-05T14:36:55.443Z,94.1
2023-10-05T14:38:36.039Z,94
2023-10-05T14:40:16.565Z,94.2
2023-10-05T14:41:57.623Z,94.1
2023-10-05T14:43:38.287Z,94.5
2023-10-05T14:45:18.893Z,93.9
2023-10-05T14:46:59.628Z,93.9
2023-10-05T14:48:40.185Z,94
2023-10-05T14:50:20.673Z,94.2
2023-10-05T14:52:01.399Z,94.2
2023-10-05T14:53:41.964Z,94.2
2023-10-05T14:55:22.503Z,94.3
2023-10-05T14:57:02.979Z,94.4
2023-10-05T14:58:43.504Z,94.5
2023-10-05T15:00:24.097Z,94.5
2023-10-05T15:02:04.658Z,94.2
2023-10-05T15:03:45.335Z,94.2
2023-10-05T15:05:25.973Z,94.4
2023-10-05T15:07:06.555Z,94.2
2023-10-05T15:08:47.127Z,93.9
2023-10-05T15:10:27.628Z,94
2023-10-05T15:12:08.195Z,94.1
2023-10-05T15:13:48.690Z,94.6
2023-10-05T15:15:29.116Z,94.5
2023-10-05T15:17:09.643Z,94.2
2023-10-05T15:18:50.251Z,93.9
2023-10-05T15:20:30.699Z,94.2
2023-10-05T15:22:11.498Z,94.3
2023-10-05T15:23:52.011Z,94.3
2023-10-05T15:25:32.549Z,94.2
2023-10-05T15:27:13.142Z,94.6
2023-10-05T15:28:53.719Z,94.2
2023-10-05T15:30:34.277Z,94.4
2023-10-05T15:32:14.731Z,94.8
2023-10-05T15:33:55.154Z,94.6
2023-10-05T15:35:35.607Z,95.2
2023-10-05T15:37:16.418Z,94.1
2023-10-05T15:38:56.931Z,94.3
2023-10-05T15:40:37.542Z,94.6
2023-10-05T15:42:18.151Z,94.3
2023-10-05T15:43:58.668Z,94.4
2023-10-05T15:45:39.161Z,94.6
2023-10-05T15:47:19.725Z,94.5
2023-10-05T15:49:00.292Z,94.4
2023-10-05T15:50:40.877Z,94.7
2023-10-05T15:52:21.696Z,94.8
2023-10-05T15:54:19.248Z,95.2
2023-10-05T15:55:59.718Z,94.8
2023-10-05T15:57:40.168Z,94.6
2023-10-05T15:59:20.624Z,94.6
2023-10-05T16:01:01.172Z,94.6
2023-10-05T16:02:41.875Z,94.6
2023-10-05T16:04:22.777Z,94.5
2023-10-05T16:06:03.287Z,94.8
2023-10-05T16:07:44.152Z,95.1
2023-10-05T16:09:24.793Z,94.6
2023-10-05T16:11:05.247Z,94.9
2023-10-05T16:12:45.880Z,95.1
2023-10-05T16:14:26.567Z,94.3
2023-10-05T16:16:08.220Z,95.1
2023-10-05T16:17:48.776Z,95.2
2023-10-05T16:19:29.449Z,94.4
2023-10-05T16:21:09.929Z,94.4
2023-10-05T16:22:50.684Z,95
2023-10-05T16:24:31.353Z,94.7
2023-10-05T16:26:11.803Z,94.8
2023-10-05T16:27:52.262Z,94.6
2023-10-05T16:29:32.719Z,94.7
2023-10-05T16:31:13.194Z,94.5
2023-10-05T16:32:53.860Z,94.7
2023-10-05T16:34:34.507Z,95
2023-10-05T16:36:15.123Z,94.5
2023-10-05T16:37:56.064Z,94.8
2023-10-05T16:39:36.974Z,94.6
2023-10-05T16:41:17.506Z,94.7
2023-10-05T16:42:58.095Z,94.7
2023-10-05T16:44:39.161Z,94.7
2023-10-05T16:46:19.831Z,94.6
2023-10-05T16:48:00.629Z,94.6
2023-10-05T16:49:41.326Z,94.8
2023-10-05T16:51:21.913Z,94.8
2023-10-05T16:53:02.551Z,94.9
2023-10-05T16:54:43.128Z,94.3
2023-10-05T16:56:48.013Z,94.8
2023-10-05T16:58:34.278Z,94.8
2023-10-05T17:00:14.798Z,94.8
2023-10-05T17:01:55.337Z,95.1
2023-10-05T17:03:36.014Z,94.7
2023-10-05T17:05:16.487Z,94.4
2023-10-05T17:06:56.946Z,94.7
2023-10-05T17:08:37.781Z,94.5
2023-10-05T17:10:18.373Z,95.2
2023-10-05T17:11:58.937Z,94.4
2023-10-05T17:13:39.450Z,94.6
2023-10-05T17:15:20.091Z,94.6
2023-10-05T17:17:00.827Z,94.7
2023-10-05T17:18:41.255Z,94.6
2023-10-05T17:20:21.722Z,94.6
2023-10-05T17:22:02.367Z,94.4
2023-10-05T17:23:43.001Z,94.5
2023-10-05T17:25:23.672Z,94.5
2023-10-05T17:27:04.254Z,94.7
2023-10-05T17:28:44.887Z,94.7
2023-10-05T17:30:25.380Z,94.9
2023-10-05T17:32:06.283Z,94.7
2023-10-05T17:33:46.996Z,94.9
2023-10-05T17:35:27.450Z,95.2
2023-10-05T17:37:07.904Z,95
2023-10-05T17:38:48.553Z,94.7
2023-10-05T17:40:29.204Z,95
2023-10-05T17:42:26.694Z,94.6
2023-10-05T17:44:07.162Z,94.6
2023-10-05T17:45:47.708Z,94.6
2023-10-05T17:47:28.355Z,94.6
2023-10-05T17:49:09.350Z,94.7
2023-10-05T17:50:49.881Z,94.6
2023-10-05T17:52:30.531Z,94.9
2023-10-05T17:54:11.180Z,94.8
2023-10-05T17:55:51.841Z,94.5
2023-10-05T17:57:32.546Z,94.4
2023-10-05T17:59:12.991Z,94.3
2023-10-05T18:00:53.535Z,94.3
2023-10-05T18:02:34.447Z,94.8
2023-10-05T18:04:15.184Z,94.6
2023-10-05T18:05:55.656Z,94.8
2023-10-05T18:07:36.254Z,94.8
2023-10-05T18:09:17.028Z,94.7
2023-10-05T18:10:57.659Z,94.3
2023-10-05T18:12:38.217Z,94.4
2023-10-05T18:14:18.828Z,94.3
2023-10-05T18:15:59.479Z,94.7
2023-10-05T18:17:39.972Z,94.5
2023-10-05T18:19:20.492Z,94.5
2023-10-05T18:21:01.153Z,95
2023-10-05T18:22:41.673Z,94.4
2023-10-05T18:24:22.478Z,94.5
2023-10-05T18:26:03.141Z,94.4
2023-10-05T18:27:43.618Z,94.5
2023-10-05T18:29:24.144Z,94.7
2023-10-05T18:31:04.662Z,95
2023-10-05T18:32:45.267Z,94.5
2023-10-05T18:34:25.826Z,94.4
2023-10-05T18:36:06.395Z,94.4
2023-10-05T18:37:46.902Z,95.3
2023-10-05T18:39:27.580Z,94.7
2023-10-05T18:41:08.168Z,94.7
2023-10-05T18:42:48.628Z,94.8
2023-10-05T18:44:29.069Z,94.5
2023-10-05T18:46:09.644Z,94.8
2023-10-05T18:47:50.285Z,94.5
2023-10-05T18:49:30.839Z,94.9
2023-10-05T18:51:11.302Z,94.5
2023-10-05T18:52:51.845Z,94.7
2023-10-05T18:54:32.502Z,94.7
2023-10-05T18:56:13.077Z,94.9
2023-10-05T18:57:53.534Z,94.9
2023-10-05T18:59:34.015Z,94.8
2023-10-05T19:01:14.630Z,94.8
2023-10-05T19:02:55.117Z,95.3
2023-10-05T19:04:35.586Z,95.1
2023-10-05T19:06:16.027Z,94.6
2023-10-05T19:07:56.584Z,94.6
2023-10-05T19:09:37.320Z,95.1
2023-10-05T19:11:18.158Z,94.3
2023-10-05T19:12:58.692Z,94.7
2023-10-05T19:14:39.107Z,94.8
2023-10-05T19:16:19.757Z,95
2023-10-05T19:18:00.361Z,94.6
2023-10-05T19:19:40.797Z,94.5
2023-10-05T19:21:21.410Z,94.8
2023-10-05T19:23:01.921Z,94.7
2023-10-05T19:24:42.551Z,94.8
2023-10-05T19:26:23.124Z,94.8
2023-10-05T19:28:03.575Z,94.8
2023-10-05T19:29:44.032Z,94.7
2023-10-05T19:31:24.591Z,94.7
2023-10-05T19:31:41.908Z,94.6
2023-10-05T19:33:22.461Z,94.8
2023-10-05T19:35:03.015Z,94.8
2023-10-05T19:36:43.496Z,95.3
2023-10-05T19:38:24.043Z,94.7
2023-10-05T19:40:04.779Z,94.9
2023-10-05T19:41:45.358Z,95.2
2023-10-05T19:43:26.002Z,94.7
2023-10-05T19:45:06.576Z,95.1
2023-10-05T19:46:47.165Z,94.6
2023-10-05T19:48:27.894Z,95.2
2023-10-05T19:50:08.517Z,94.7
2023-10-05T19:51:49.015Z,95.1
2023-10-05T19:53:29.464Z,94.8
2023-10-05T19:55:10.202Z,95
2023-10-05T19:56:50.784Z,94.7
2023-10-05T19:58:31.355Z,94.8
2023-10-05T20:00:12.018Z,94.4
2023-10-05T20:01:52.946Z,94.8
2023-10-05T20:03:33.873Z,94.9
2023-10-05T20:05:14.626Z,94.7
2023-10-05T20:06:55.162Z,94.7
2023-10-05T20:08:35.636Z,94.9
2023-10-05T20:10:16.483Z,94.9
2023-10-05T20:11:57.052Z,94.6
2023-10-05T20:13:37.574Z,94.9
2023-10-05T20:15:18.153Z,94.9
2023-10-05T20:16:58.718Z,94.9
2023-10-05T20:18:39.284Z,95
2023-10-05T20:20:19.719Z,94.8
2023-10-05T20:22:00.179Z,94.9
2023-10-05T20:23:40.654Z,95.5
2023-10-05T20:25:21.275Z,94.8
2023-10-05T20:27:01.890Z,95.1
2023-10-05T20:28:42.520Z,94.7
2023-10-05T20:30:22.983Z,95.2
2023-10-05T20:32:03.487Z,95.2
2023-10-05T20:33:43.993Z,94.9
2023-10-05T20:35:24.496Z,95
2023-10-05T20:37:05.033Z,94.9
2023-10-05T20:38:45.624Z,95.1
2023-10-05T20:40:26.441Z,95.2
2023-10-05T20:42:07.085Z,95.3
2023-10-05T20:43:47.674Z,95
2023-10-05T20:45:28.212Z,95.2
2023-10-05T20:47:08.781Z,95.4
2023-10-05T20:48:49.324Z,95
2023-10-05T20:50:29.770Z,95.2
2023-10-05T20:52:10.236Z,95.2
2023-10-05T20:53:50.705Z,95.1
2023-10-05T20:55:31.476Z,95
2023-10-05T20:57:12.135Z,95.1
2023-10-05T20:58:52.647Z,95.1
2023-10-05T21:00:33.403Z,95.3
2023-10-05T21:03:28.178Z,95.2
2023-10-05T21:05:08.936Z,95
2023-10-05T21:06:49.534Z,95.2
2023-10-05T21:08:30.000Z,95.3
2023-10-05T21:10:10.459Z,95.5
2023-10-05T21:11:51.088Z,95.2
2023-10-05T21:13:31.676Z,95.3
2023-10-05T21:15:12.136Z,95.2
2023-10-05T21:16:52.890Z,95.5
2023-10-05T21:18:33.608Z,95
2023-10-05T21:20:14.101Z,96
2023-10-05T21:21:54.654Z,95.3
2023-10-05T21:23:35.137Z,95.1
2023-10-05T21:25:15.570Z,95.5
2023-10-05T21:26:56.146Z,95.8
2023-10-05T21:28:36.866Z,95.1
2023-10-05T21:30:17.339Z,95.5
2023-10-05T21:31:58.096Z,95.2
2023-10-05T21:33:38.673Z,95.3
2023-10-05T21:35:19.133Z,95.1
2023-10-05T21:36:59.672Z,95.2
2023-10-05T21:38:40.133Z,95.3
2023-10-05T21:40:20.588Z,95.7
2023-10-05T21:42:01.234Z,95.1
2023-10-05T21:43:41.815Z,95.8
2023-10-05T21:45:22.374Z,95.4
2023-10-05T21:47:02.959Z,95.3
2023-10-05T21:48:43.481Z,95.6
2023-10-05T21:50:23.936Z,95.6
2023-10-05T21:52:04.397Z,95.4
2023-10-05T21:53:44.846Z,95.3
2023-10-05T21:55:25.329Z,95.3
2023-10-05T21:57:05.947Z,95.8
2023-10-05T21:58:46.715Z,95.5
2023-10-05T22:00:27.183Z,95.4
2023-10-05T22:02:07.784Z,95.7
2023-10-05T22:03:48.538Z,95.4
2023-10-05T22:05:29.171Z,95.5
2023-10-05T22:07:09.624Z,95.2
2023-10-05T22:08:50.072Z,95.4
2023-10-05T22:10:30.616Z,95.4
2023-10-05T22:12:11.379Z,95.7
2023-10-05T22:13:51.993Z,95.3
2023-10-05T22:15:32.539Z,95.2
2023-10-05T22:17:13.051Z,95.4
2023-10-05T22:18:53.829Z,95.5
2023-10-05T22:20:34.317Z,95.2
2023-10-05T22:22:14.739Z,95.6
2023-10-05T22:23:55.209Z,95.3
2023-10-05T22:25:35.741Z,95.6
2023-10-05T22:27:16.506Z,95.3
2023-10-05T22:28:57.158Z,95.7
2023-10-05T22:30:38.062Z,95.7
2023-10-05T22:32:18.709Z,95.3
2023-10-05T22:33:59.175Z,95.3
2023-10-05T22:35:39.683Z,95.3
2023-10-05T22:37:20.284Z,95.3
2023-10-05T22:39:00.741Z,95.2
2023-10-05T22:40:41.220Z,95.9
2023-10-05T22:42:22.055Z,95
2023-10-05T22:44:02.875Z,95.5
2023-10-05T22:45:43.371Z,95.5
2023-10-05T22:47:23.901Z,95.4
2023-10-05T22:49:04.395Z,95.5
2023-10-05T22:50:44.839Z,95.3
2023-10-05T22:52:25.319Z,95.7
2023-10-05T22:54:22.876Z,95.6
2023-10-05T22:56:03.510Z,95.5
2023-10-05T22:57:44.278Z,95.5
2023-10-05T22:59:24.858Z,95.3
2023-10-05T23:01:05.316Z,95.7
2023-10-05T23:02:45.885Z,95.2
2023-10-05T23:04:26.642Z,95.4
2023-10-05T23:06:07.225Z,95.3
2023-10-05T23:07:47.823Z,96.2
2023-10-05T23:09:28.414Z,95.4